Time;durP1;ratioP1;P1;durP2;ratioP2;P2;SDS_P1;SDS_P2;PMS_P1;PMS_P2;Temp;Humidity;BMP_temperature;BMP_pressure;BME280_temperature;BME280_humidity;BME280_pressure;Samples;Min_cycle;Max_cycle;Signal;HPM_P1;HPM_P2
2023/07/16 00:00:49;;;;;;;10.20;3.05;;;17.50;99.90;;;;;;5042644;28;20059;-46
2023/07/16 00:03:15;;;;;;;8.45;3.00;;;17.50;99.90;;;;;;5043057;28;20411;-48
2023/07/16 00:05:41;;;;;;;11.73;3.20;;;17.50;99.90;;;;;;5044236;28;20045;-49
2023/07/16 00:08:06;;;;;;;7.28;3.00;;;17.50;99.90;;;;;;5043822;28;20351;-52
2023/07/16 00:10:36;;;;;;;11.30;3.08;;;17.50;99.90;;;;;;5042807;28;20126;-49
2023/07/16 00:13:03;;;;;;;8.73;2.90;;;17.40;99.90;;;;;;5044170;28;20390;-47
2023/07/16 00:15:29;;;;;;;5.93;2.75;;;17.50;99.90;;;;;;5043402;28;20037;-47
2023/07/16 00:17:54;;;;;;;9.60;2.97;;;17.40;99.90;;;;;;5043916;28;20041;-48
2023/07/16 00:20:21;;;;;;;6.28;3.08;;;17.40;99.90;;;;;;5043171;28;20037;-47
2023/07/16 00:22:46;;;;;;;8.63;2.70;;;17.30;99.90;;;;;;5043209;28;20120;-48
2023/07/16 00:25:12;;;;;;;9.75;2.58;;;17.30;99.90;;;;;;5043559;28;20132;-49
2023/07/16 00:27:38;;;;;;;7.63;2.67;;;17.30;99.90;;;;;;5042973;28;20047;-50
2023/07/16 00:30:04;;;;;;;9.10;2.90;;;17.20;99.90;;;;;;5043454;28;20483;-48
2023/07/16 00:32:30;;;;;;;10.30;2.90;;;17.20;99.90;;;;;;5043652;28;20049;-47
2023/07/16 00:34:55;;;;;;;9.25;2.60;;;17.30;99.90;;;;;;5042803;28;20041;-48
2023/07/16 00:37:21;;;;;;;7.57;2.55;;;17.30;99.90;;;;;;5042805;28;20124;-47
2023/07/16 00:39:46;;;;;;;9.93;2.90;;;17.40;99.90;;;;;;5042741;28;20077;-47
2023/07/16 00:42:12;;;;;;;6.60;2.78;;;17.20;99.90;;;;;;5043545;28;20380;-50
2023/07/16 00:44:38;;;;;;;6.70;2.78;;;17.40;99.90;;;;;;5043266;28;20157;-48
2023/07/16 00:47:03;;;;;;;8.00;2.75;;;17.40;99.90;;;;;;5043019;28;20102;-48
2023/07/16 00:49:29;;;;;;;7.63;2.58;;;17.20;99.90;;;;;;5042951;28;20416;-49
2023/07/16 00:51:55;;;;;;;8.45;2.88;;;17.20;99.90;;;;;;5043153;28;20055;-50
2023/07/16 00:54:22;;;;;;;7.63;2.65;;;17.20;99.90;;;;;;5049049;28;20075;-47
2023/07/16 00:56:48;;;;;;;9.35;2.97;;;17.30;99.90;;;;;;5062607;28;20049;-50
2023/07/16 00:59:13;;;;;;;11.52;3.10;;;17.20;99.90;;;;;;5063382;28;20036;-49
2023/07/16 01:01:39;;;;;;;8.80;3.05;;;17.30;99.90;;;;;;5061332;28;20395;-49
2023/07/16 01:04:05;;;;;;;8.23;2.55;;;17.40;99.90;;;;;;5115991;22;20052;-58
2023/07/16 01:06:38;;;;;;;9.93;3.05;;;17.40;99.90;;;;;;5029438;28;20045;-58
2023/07/16 01:09:18;;;;;;;7.93;2.70;;;17.30;99.90;;;;;;5037003;28;20045;-58
2023/07/16 01:11:45;;;;;;;8.77;2.65;;;17.40;99.90;;;;;;5044186;28;20063;-58
2023/07/16 01:14:12;;;;;;;12.68;3.30;;;17.30;99.90;;;;;;5043351;28;20041;-58
2023/07/16 01:16:37;;;;;;;7.95;2.72;;;17.30;99.90;;;;;;5042943;28;20061;-58
2023/07/16 01:19:03;;;;;;;7.32;2.70;;;17.20;99.90;;;;;;5042480;28;20040;-57
2023/07/16 01:22:04;;;;;;;8.18;3.00;;;17.20;99.90;;;;;;5042638;28;20067;-57
2023/07/16 01:24:38;;;;;;;10.55;2.83;;;17.20;99.90;;;;;;5041584;28;20110;-57
2023/07/16 01:27:36;;;;;;;9.45;3.28;;;17.10;99.90;;;;;;5043219;28;20055;-58
2023/07/16 01:30:03;;;;;;;9.88;3.30;;;17.00;99.90;;;;;;5041212;28;20045;-58
2023/07/16 01:32:33;;;;;;;11.43;3.30;;;17.00;99.90;;;;;;5042161;28;20497;-58
2023/07/16 01:34:59;;;;;;;8.35;3.22;;;17.10;99.90;;;;;;5041576;28;20072;-57
2023/07/16 01:37:25;;;;;;;12.48;3.33;;;17.10;99.90;;;;;;5041899;28;20302;-58
2023/07/16 01:39:51;;;;;;;11.35;2.90;;;17.00;99.90;;;;;;5041659;28;20513;-58
2023/07/16 01:42:17;;;;;;;9.23;3.20;;;16.90;99.90;;;;;;5042112;28;20055;-58
2023/07/16 01:44:42;;;;;;;9.52;3.22;;;16.80;99.90;;;;;;5042302;28;20388;-58
2023/07/16 01:47:45;;;;;;;11.02;3.30;;;16.80;99.90;;;;;;5041370;28;20509;-58
2023/07/16 01:50:11;;;;;;;17.52;3.60;;;16.80;99.90;;;;;;5042571;28;20041;-58
2023/07/16 01:52:37;;;;;;;9.05;3.50;;;16.80;99.90;;;;;;5041946;28;20033;-57
2023/07/16 01:55:02;;;;;;;7.68;3.20;;;16.70;99.90;;;;;;5041760;28;20051;-58
2023/07/16 01:57:28;;;;;;;9.10;2.70;;;16.70;99.90;;;;;;5041172;28;20083;-58
2023/07/16 01:59:54;;;;;;;8.77;3.38;;;16.70;99.90;;;;;;5040864;28;20530;-58
2023/07/16 02:02:19;;;;;;;11.13;3.13;;;16.60;99.90;;;;;;5041538;28;20511;-59
2023/07/16 02:04:45;;;;;;;7.72;3.13;;;16.60;99.90;;;;;;5041840;28;20045;-57
2023/07/16 02:07:11;;;;;;;9.23;3.10;;;16.60;99.90;;;;;;5041779;28;20052;-58
2023/07/16 02:09:37;;;;;;;9.98;3.28;;;16.60;99.90;;;;;;5041005;28;20183;-57
2023/07/16 02:12:02;;;;;;;11.00;2.88;;;16.70;99.90;;;;;;5041037;28;20075;-57
2023/07/16 02:14:28;;;;;;;9.75;3.55;;;16.70;99.90;;;;;;5041109;28;20116;-58
2023/07/16 02:16:54;;;;;;;9.63;3.50;;;16.70;99.90;;;;;;5041911;28;20041;-57
2023/07/16 02:19:19;;;;;;;6.55;3.00;;;16.70;99.90;;;;;;5042442;28;20045;-57
2023/07/16 02:21:45;;;;;;;7.63;3.10;;;16.80;99.90;;;;;;5041658;28;20041;-58
2023/07/16 02:24:10;;;;;;;12.45;2.83;;;16.80;99.90;;;;;;5040610;28;20049;-58
2023/07/16 02:26:36;;;;;;;10.25;3.33;;;16.80;99.90;;;;;;5041418;28;20117;-56
2023/07/16 02:29:02;;;;;;;9.07;3.47;;;16.70;99.90;;;;;;5041880;28;20045;-56
2023/07/16 02:31:27;;;;;;;8.02;3.10;;;16.80;99.90;;;;;;5040781;28;20036;-57
2023/07/16 02:33:53;;;;;;;9.90;3.50;;;16.90;99.90;;;;;;5040412;28;20124;-57
2023/07/16 02:36:18;;;;;;;8.35;3.33;;;16.80;99.90;;;;;;5041676;28;20041;-57
2023/07/16 02:38:44;;;;;;;8.05;3.75;;;16.90;99.90;;;;;;5040739;28;20122;-57
2023/07/16 02:41:10;;;;;;;10.45;4.32;;;16.80;99.90;;;;;;5040482;28;20373;-59
2023/07/16 02:43:35;;;;;;;9.57;3.88;;;16.80;99.90;;;;;;5041287;28;20045;-58
2023/07/16 02:46:01;;;;;;;9.30;3.72;;;16.80;99.90;;;;;;5041139;28;20049;-58
2023/07/16 02:48:26;;;;;;;10.43;3.65;;;16.70;99.90;;;;;;5040700;28;20041;-56
2023/07/16 02:50:52;;;;;;;8.18;3.70;;;16.80;99.90;;;;;;5031123;28;20034;-60
2023/07/16 02:53:18;;;;;;;8.40;3.85;;;16.80;99.90;;;;;;5020417;28;20164;-58
2023/07/16 02:55:45;;;;;;;11.00;3.80;;;16.70;99.90;;;;;;5021566;28;20037;-57
2023/07/16 02:58:11;;;;;;;8.70;4.07;;;16.70;99.90;;;;;;5020909;28;20252;-58
2023/07/16 03:00:36;;;;;;;9.20;3.95;;;16.70;99.90;;;;;;5019767;28;20041;-58
2023/07/16 03:03:02;;;;;;;9.88;4.60;;;16.80;99.90;;;;;;5021346;28;20062;-59
2023/07/16 03:05:28;;;;;;;8.13;4.15;;;16.80;99.90;;;;;;5020618;28;20139;-57
2023/07/16 03:07:54;;;;;;;10.98;4.28;;;16.80;99.90;;;;;;5019648;28;20050;-60
2023/07/16 03:10:20;;;;;;;9.32;4.00;;;16.80;99.90;;;;;;5021419;28;20529;-59
2023/07/16 03:12:46;;;;;;;10.60;4.20;;;16.80;99.90;;;;;;5021150;28;20172;-58
2023/07/16 03:15:12;;;;;;;12.93;4.45;;;16.70;99.90;;;;;;5021243;28;20128;-57
2023/07/16 03:17:37;;;;;;;9.02;4.70;;;16.80;99.90;;;;;;5020789;28;20424;-56
2023/07/16 03:20:05;;;;;;;12.30;5.03;;;16.70;99.90;;;;;;5021195;28;20042;-58
2023/07/16 03:22:30;;;;;;;8.43;4.05;;;16.70;99.90;;;;;;5020902;28;20455;-59
2023/07/16 03:24:56;;;;;;;11.65;4.22;;;16.60;99.90;;;;;;5020119;28;20045;-59
2023/07/16 03:27:22;;;;;;;7.53;3.85;;;16.60;99.90;;;;;;5021458;28;20033;-58
2023/07/16 03:29:47;;;;;;;10.65;4.43;;;16.50;99.90;;;;;;5020730;28;20048;-57
2023/07/16 03:32:13;;;;;;;10.48;4.70;;;16.60;99.90;;;;;;5019786;28;20083;-58
2023/07/16 03:34:38;;;;;;;8.27;4.13;;;16.50;99.90;;;;;;5020504;28;20114;-57
2023/07/16 03:37:04;;;;;;;9.10;4.10;;;16.60;99.90;;;;;;5019693;28;20480;-58
2023/07/16 03:39:30;;;;;;;9.80;4.28;;;16.50;99.90;;;;;;5020045;28;20501;-57
2023/07/16 03:41:55;;;;;;;10.02;4.00;;;16.60;99.90;;;;;;5020005;28;20414;-57
2023/07/16 03:44:21;;;;;;;15.10;4.88;;;16.50;99.90;;;;;;5021251;28;20183;-58
2023/07/16 03:46:47;;;;;;;11.13;4.30;;;16.50;99.90;;;;;;5020680;28;20041;-58
2023/07/16 03:49:12;;;;;;;8.40;4.05;;;16.50;99.90;;;;;;5021067;28;20150;-56
2023/07/16 03:51:38;;;;;;;7.53;3.40;;;16.40;99.90;;;;;;5018705;28;20049;-56
2023/07/16 03:54:03;;;;;;;10.70;4.25;;;16.60;99.90;;;;;;5020467;28;20405;-57
2023/07/16 03:56:29;;;;;;;9.68;4.50;;;16.60;99.90;;;;;;5020979;28;20071;-58
2023/07/16 03:58:54;;;;;;;10.30;4.20;;;16.60;99.90;;;;;;5020293;28;20052;-58
2023/07/16 04:01:20;;;;;;;11.00;4.45;;;16.60;99.90;;;;;;5021012;28;20070;-58
2023/07/16 04:03:46;;;;;;;13.27;4.63;;;16.60;99.90;;;;;;5020398;28;20061;-57
2023/07/16 04:06:12;;;;;;;11.35;4.43;;;16.70;99.90;;;;;;5020430;28;20042;-58
2023/07/16 04:08:38;;;;;;;9.32;4.68;;;16.70;99.90;;;;;;5019108;28;20046;-58
2023/07/16 04:11:05;;;;;;;8.20;4.40;;;16.70;99.90;;;;;;5024316;28;20091;-58
2023/07/16 04:13:31;;;;;;;10.25;4.50;;;16.60;99.90;;;;;;5023113;28;20104;-58
2023/07/16 04:15:57;;;;;;;11.93;4.95;;;16.60;99.90;;;;;;5023490;28;20397;-59
2023/07/16 04:18:24;;;;;;;13.07;4.80;;;16.60;99.90;;;;;;5024505;28;20049;-57
2023/07/16 04:20:50;;;;;;;10.75;4.15;;;16.60;99.90;;;;;;5023872;28;20115;-57
2023/07/16 04:23:15;;;;;;;10.90;4.28;;;16.50;99.90;;;;;;5023281;28;20095;-56
2023/07/16 04:25:41;;;;;;;10.88;4.60;;;16.50;99.90;;;;;;5023378;28;20053;-57
2023/07/16 04:28:07;;;;;;;11.15;4.43;;;16.50;99.90;;;;;;5023981;28;20045;-58
2023/07/16 04:30:33;;;;;;;11.63;4.63;;;16.60;99.90;;;;;;5024268;28;20124;-57
2023/07/16 04:32:58;;;;;;;9.15;4.40;;;16.60;99.90;;;;;;5023148;28;20696;-59
2023/07/16 04:35:24;;;;;;;13.57;4.85;;;16.50;99.90;;;;;;5006318;28;20040;-57
2023/07/16 04:37:50;;;;;;;11.65;4.80;;;16.60;99.90;;;;;;5022723;28;20447;-58
2023/07/16 04:40:15;;;;;;;14.63;4.13;;;16.60;99.90;;;;;;5026362;28;20388;-58
2023/07/16 04:42:41;;;;;;;12.80;4.45;;;16.60;99.90;;;;;;5023470;28;20045;-57
2023/07/16 04:45:07;;;;;;;13.75;4.93;;;16.60;99.90;;;;;;5023552;28;20038;-58
2023/07/16 04:47:32;;;;;;;12.07;4.53;;;16.50;99.90;;;;;;5035838;28;20517;-58
2023/07/16 04:49:59;;;;;;;13.80;4.80;;;16.90;99.90;;;;;;5043013;28;20660;-58
2023/07/16 04:52:24;;;;;;;9.38;4.35;;;16.70;99.90;;;;;;5042233;28;20037;-55
2023/07/16 04:54:50;;;;;;;14.70;4.88;;;16.80;99.90;;;;;;5043475;28;20040;-59
2023/07/16 04:57:16;;;;;;;9.98;4.70;;;17.10;99.90;;;;;;5041583;28;20091;-58
2023/07/16 04:59:42;;;;;;;12.27;4.65;;;17.30;99.90;;;;;;5042686;28;20099;-59
2023/07/16 05:02:07;;;;;;;13.88;5.13;;;17.30;99.90;;;;;;5043012;28;20523;-58
2023/07/16 05:04:34;;;;;;;13.88;5.00;;;17.40;99.90;;;;;;5043174;28;20100;-57
2023/07/16 05:07:02;;;;;;;11.02;4.20;;;17.40;99.90;;;;;;5022645;28;20045;-58
2023/07/16 05:09:28;;;;;;;6.95;4.00;;;17.50;99.90;;;;;;5021906;28;20037;-58
2023/07/16 05:11:53;;;;;;;8.65;4.10;;;17.50;99.90;;;;;;5023385;28;20446;-57
2023/07/16 05:14:19;;;;;;;10.20;4.43;;;17.60;99.90;;;;;;5022927;28;20435;-58
2023/07/16 05:16:44;;;;;;;11.18;4.78;;;17.70;99.90;;;;;;5022254;28;20049;-57
2023/07/16 05:19:10;;;;;;;10.88;4.15;;;17.70;99.90;;;;;;5022592;28;20249;-57
2023/07/16 05:21:36;;;;;;;9.35;4.13;;;17.80;99.90;;;;;;5022779;28;20040;-58
2023/07/16 05:24:02;;;;;;;10.32;4.65;;;17.90;99.90;;;;;;5020329;28;20095;-57
2023/07/16 05:26:28;;;;;;;12.85;4.43;;;18.00;99.90;;;;;;5022103;28;20055;-58
2023/07/16 05:28:54;;;;;;;9.93;4.03;;;18.10;99.90;;;;;;5023088;28;20136;-58
2023/07/16 05:31:19;;;;;;;6.82;3.42;;;18.10;99.90;;;;;;5022752;28;20585;-58
2023/07/16 05:33:45;;;;;;;12.18;4.60;;;18.20;99.90;;;;;;5023081;28;20140;-57
2023/07/16 05:36:10;;;;;;;10.13;3.95;;;18.30;99.90;;;;;;5022174;28;20121;-57
2023/07/16 05:38:36;;;;;;;8.77;3.85;;;18.40;99.90;;;;;;5022045;28;20463;-58
2023/07/16 05:41:03;;;;;;;9.80;4.10;;;18.50;99.90;;;;;;5022693;28;20065;-58
2023/07/16 05:43:29;;;;;;;8.38;3.75;;;18.60;99.90;;;;;;5022077;28;20045;-57
2023/07/16 05:45:55;;;;;;;10.43;4.20;;;18.70;99.90;;;;;;5022534;28;20038;-59
2023/07/16 05:48:20;;;;;;;11.23;3.78;;;18.70;99.90;;;;;;5022816;28;20522;-57
2023/07/16 05:50:46;;;;;;;11.43;3.95;;;18.80;99.90;;;;;;5022476;28;20165;-57
2023/07/16 05:53:13;;;;;;;9.15;3.95;;;18.90;99.90;;;;;;5021219;28;20424;-57
2023/07/16 05:55:42;;;;;;;9.70;3.47;;;19.00;99.90;;;;;;5022699;28;20034;-58
2023/07/16 05:58:08;;;;;;;10.65;3.75;;;19.10;99.90;;;;;;5022002;28;20045;-57
2023/07/16 06:00:35;;;;;;;7.03;2.85;;;19.00;99.90;;;;;;5033764;28;20377;-57
2023/07/16 06:03:02;;;;;;;7.45;4.00;;;19.10;99.90;;;;;;5041665;28;20191;-57
2023/07/16 06:05:32;;;;;;;7.57;3.60;;;19.40;99.90;;;;;;5042009;28;20048;-57
2023/07/16 06:07:58;;;;;;;10.02;3.85;;;19.50;99.90;;;;;;5033022;28;20395;-58
2023/07/16 06:10:23;;;;;;;9.50;3.67;;;19.60;99.90;;;;;;5020461;28;20134;-57
2023/07/16 06:12:49;;;;;;;11.30;3.92;;;19.70;99.90;;;;;;5061503;28;20037;-57
2023/07/16 06:15:14;;;;;;;7.18;3.83;;;19.60;99.90;;;;;;5033991;28;20056;-57
2023/07/16 06:17:40;;;;;;;10.48;3.88;;;19.70;99.90;;;;;;5021432;28;20476;-57
2023/07/16 06:20:07;;;;;;;7.38;3.45;;;19.50;99.90;;;;;;5037868;28;20121;-57
2023/07/16 06:22:32;;;;;;;7.85;3.47;;;19.40;99.90;;;;;;5030907;28;20053;-58
2023/07/16 06:24:59;;;;;;;8.93;4.07;;;19.40;99.90;;;;;;5022262;28;20511;-57
2023/07/16 06:27:25;;;;;;;10.00;3.85;;;19.70;99.90;;;;;;5039639;28;20049;-56
2023/07/16 06:29:51;;;;;;;11.23;3.97;;;20.00;99.90;;;;;;5021062;28;20499;-56
2023/07/16 06:32:16;;;;;;;8.32;3.55;;;20.00;99.90;;;;;;5021734;28;20049;-55
2023/07/16 06:34:42;;;;;;;11.13;4.10;;;19.90;99.90;;;;;;5021503;28;20041;-58
2023/07/16 06:37:08;;;;;;;9.05;3.85;;;19.80;99.90;;;;;;5021157;28;20407;-55
2023/07/16 06:39:33;;;;;;;12.57;4.20;;;19.90;99.90;;;;;;5031673;28;20041;-56
2023/07/16 06:41:59;;;;;;;8.30;4.13;;;19.90;99.90;;;;;;5036118;28;20391;-58
2023/07/16 06:44:25;;;;;;;9.63;4.07;;;20.00;99.90;;;;;;5027353;28;20284;-57
2023/07/16 06:46:50;;;;;;;10.80;4.25;;;20.10;99.90;;;;;;5021793;28;20049;-56
2023/07/16 06:49:16;;;;;;;8.52;3.63;;;20.00;99.90;;;;;;5021102;28;20053;-57
2023/07/16 06:51:41;;;;;;;10.68;3.90;;;20.10;99.90;;;;;;5038861;28;20045;-58
2023/07/16 06:54:08;;;;;;;9.23;4.20;;;20.20;99.90;;;;;;5040824;28;20049;-56
2023/07/16 06:56:33;;;;;;;11.10;4.10;;;20.20;99.90;;;;;;5039831;28;20052;-61
2023/07/16 06:58:59;;;;;;;10.30;4.22;;;20.00;99.90;;;;;;5041979;28;20045;-56
2023/07/16 07:01:27;;;;;;;11.13;4.35;;;19.90;99.90;;;;;;5040541;28;20240;-56
2023/07/16 07:03:53;;;;;;;10.43;4.38;;;19.70;99.90;;;;;;5041498;28;20056;-57
2023/07/16 07:06:19;;;;;;;7.57;3.65;;;19.60;99.90;;;;;;5041498;28;20033;-57
2023/07/16 07:08:44;;;;;;;8.23;3.70;;;19.40;99.90;;;;;;5040139;28;20041;-57
2023/07/16 07:11:10;;;;;;;9.25;4.13;;;19.30;99.90;;;;;;5040800;28;20079;-58
2023/07/16 07:13:35;;;;;;;9.90;4.03;;;19.20;99.90;;;;;;5041139;28;20104;-56
2023/07/16 07:16:01;;;;;;;12.13;4.70;;;19.10;99.90;;;;;;5041669;28;20037;-57
2023/07/16 07:18:27;;;;;;;8.23;4.35;;;19.10;99.90;;;;;;5040926;28;20131;-56
2023/07/16 07:20:52;;;;;;;11.50;4.25;;;19.20;99.90;;;;;;5039251;28;20415;-56
2023/07/16 07:23:18;;;;;;;10.38;4.57;;;19.20;99.90;;;;;;5040569;28;20045;-57
2023/07/16 07:25:49;;;;;;;14.30;5.00;;;19.30;99.90;;;;;;5040568;28;20241;-57
2023/07/16 07:28:15;;;;;;;12.32;4.70;;;19.10;99.90;;;;;;5040800;28;20385;-57
2023/07/16 07:30:40;;;;;;;9.73;4.75;;;19.10;99.90;;;;;;5040343;28;20048;-56
2023/07/16 07:33:06;;;;;;;10.57;4.63;;;19.20;99.90;;;;;;5036758;28;20041;-55
2023/07/16 07:35:31;;;;;;;9.57;4.20;;;19.40;99.90;;;;;;5031613;28;20048;-56
2023/07/16 07:37:57;;;;;;;8.73;4.13;;;19.60;99.90;;;;;;5027076;28;20052;-56
2023/07/16 07:40:22;;;;;;;8.18;4.28;;;19.70;99.70;;;;;;5032706;28;20134;-59
2023/07/16 07:42:48;;;;;;;9.18;4.35;;;19.80;99.80;;;;;;5036210;28;20068;-56
2023/07/16 07:45:14;;;;;;;10.10;4.20;;;20.00;99.30;;;;;;5043666;28;20041;-57
2023/07/16 07:47:40;;;;;;;9.48;5.10;;;20.10;99.00;;;;;;5043952;28;20043;-58
2023/07/16 07:50:06;;;;;;;6.43;4.10;;;20.30;99.40;;;;;;5034301;28;20463;-58
2023/07/16 07:52:31;;;;;;;8.13;4.20;;;20.40;99.10;;;;;;5032559;28;20040;-61
2023/07/16 07:54:57;;;;;;;8.18;4.10;;;20.40;98.60;;;;;;5032307;28;20029;-58
2023/07/16 07:57:23;;;;;;;9.60;5.05;;;20.40;98.20;;;;;;5033787;28;20045;-57
2023/07/16 07:59:51;;;;;;;6.72;4.00;;;20.40;98.80;;;;;;5031995;28;20074;-57
2023/07/16 08:02:18;;;;;;;7.03;4.07;;;20.50;98.50;;;;;;5032634;28;20067;-56
2023/07/16 08:04:44;;;;;;;7.50;3.83;;;20.60;97.70;;;;;;5033702;28;20103;-58
2023/07/16 08:07:09;;;;;;;9.85;4.75;;;20.50;97.80;;;;;;5031291;28;20037;-58
2023/07/16 08:09:37;;;;;;;8.25;4.15;;;20.30;97.80;;;;;;5032060;28;20033;-59
2023/07/16 08:12:03;;;;;;;9.65;4.38;;;20.10;98.00;;;;;;5033394;28;20049;-54
2023/07/16 08:14:29;;;;;;;9.73;4.57;;;19.90;98.30;;;;;;5033273;28;20941;-57
2023/07/16 08:16:54;;;;;;;11.07;4.60;;;19.90;98.80;;;;;;5031118;28;20079;-57
2023/07/16 08:19:20;;;;;;;9.93;4.20;;;19.80;99.00;;;;;;5032752;28;20124;-55
2023/07/16 08:21:45;;;;;;;8.93;4.03;;;19.70;99.30;;;;;;5031418;28;20037;-58
2023/07/16 08:24:11;;;;;;;9.50;4.40;;;19.70;99.40;;;;;;5031734;28;20602;-55
2023/07/16 08:26:37;;;;;;;12.07;4.68;;;19.80;99.70;;;;;;5031560;28;20048;-53
2023/07/16 08:29:03;;;;;;;9.00;5.28;;;19.70;99.00;;;;;;5033160;28;20235;-56
2023/07/16 08:31:29;;;;;;;13.95;5.53;;;19.80;99.20;;;;;;5031693;28;20046;-57
2023/07/16 08:33:55;;;;;;;8.30;5.32;;;19.70;99.20;;;;;;5031310;28;20414;-56
2023/07/16 08:36:20;;;;;;;10.77;4.40;;;19.70;99.20;;;;;;5031850;28;20441;-58
2023/07/16 08:38:46;;;;;;;6.78;3.65;;;19.70;98.80;;;;;;5031628;28;20037;-55
2023/07/16 08:41:11;;;;;;;10.00;4.80;;;19.70;99.00;;;;;;5031438;28;20490;-55
2023/07/16 08:43:39;;;;;;;9.95;4.28;;;19.70;98.90;;;;;;5028498;28;20072;-54
2023/07/16 08:46:05;;;;;;;12.35;4.88;;;19.80;99.10;;;;;;5031378;28;20734;-56
2023/07/16 08:48:31;;;;;;;9.50;4.50;;;19.80;99.30;;;;;;5031886;28;20075;-56
2023/07/16 08:51:01;;;;;;;10.82;4.65;;;19.80;99.30;;;;;;5030022;28;20046;-57
2023/07/16 08:53:27;;;;;;;9.02;4.25;;;20.00;99.00;;;;;;5031152;28;20052;-56
2023/07/16 08:55:52;;;;;;;11.07;4.57;;;20.30;98.60;;;;;;5031928;28;20041;-55
2023/07/16 08:58:19;;;;;;;10.00;3.90;;;20.60;98.10;;;;;;5029994;28;20234;-56
2023/07/16 09:00:45;;;;;;;10.52;4.30;;;20.50;97.30;;;;;;5029182;28;20094;-55
2023/07/16 09:03:21;;;;;;;12.80;4.68;;;20.30;97.20;;;;;;5030097;28;20524;-55
2023/07/16 09:05:47;;;;;;;11.43;4.85;;;20.30;97.50;;;;;;5031933;28;20056;-56
2023/07/16 09:08:14;;;;;;;9.02;3.90;;;20.30;97.60;;;;;;5029037;28;20040;-56
2023/07/16 09:10:43;;;;;;;13.32;4.53;;;20.30;97.70;;;;;;5032289;28;20041;-55
2023/07/16 09:13:09;;;;;;;12.30;5.03;;;20.50;97.20;;;;;;5031093;28;20232;-56
2023/07/16 09:15:35;;;;;;;8.30;4.05;;;20.70;96.70;;;;;;5028835;28;20044;-56
2023/07/16 09:18:01;;;;;;;10.90;4.57;;;20.70;97.00;;;;;;5031550;28;20529;-56
2023/07/16 09:20:27;;;;;;;9.98;3.78;;;20.60;97.10;;;;;;5031104;28;20144;-55
2023/07/16 09:22:57;;;;;;;9.77;4.65;;;20.80;97.20;;;;;;5029514;28;20556;-55
2023/07/16 09:25:28;;;;;;;10.20;3.97;;;21.00;97.30;;;;;;5031637;28;20037;-55
2023/07/16 09:27:54;;;;;;;8.30;3.85;;;21.20;96.30;;;;;;5030271;28;20500;-54
2023/07/16 09:30:20;;;;;;;8.55;4.00;;;21.40;95.70;;;;;;5031223;28;20075;-58
2023/07/16 09:32:46;;;;;;;12.15;4.35;;;21.30;95.80;;;;;;5030326;28;20076;-59
2023/07/16 09:35:16;;;;;;;7.70;4.45;;;21.20;96.20;;;;;;5030644;28;20069;-57
2023/07/16 09:37:42;;;;;;;10.27;4.45;;;21.40;96.30;;;;;;5030210;28;20163;-57
2023/07/16 09:40:12;;;;;;;11.98;4.65;;;21.50;95.50;;;;;;5030217;28;20045;-56
2023/07/16 09:42:44;;;;;;;12.18;5.53;;;21.40;95.40;;;;;;5030663;28;20444;-57
2023/07/16 09:45:18;;;;;;;12.13;5.05;;;21.20;96.10;;;;;;5030856;28;20038;-58
2023/07/16 09:47:44;;;;;;;10.73;4.40;;;20.90;96.10;;;;;;5029820;28;20042;-57
2023/07/16 09:50:11;;;;;;;8.65;4.53;;;20.80;96.50;;;;;;5030368;28;20041;-58
2023/07/16 09:52:37;;;;;;;10.52;5.05;;;20.80;96.00;;;;;;5030143;28;20046;-56
2023/07/16 09:55:03;;;;;;;7.72;4.38;;;20.70;96.60;;;;;;5029882;28;20111;-59
2023/07/16 09:57:35;;;;;;;11.48;4.60;;;20.40;96.70;;;;;;5030563;28;21146;-57
2023/07/16 10:00:05;;;;;;;8.75;3.83;;;20.50;96.70;;;;;;5030634;28;20077;-57
2023/07/16 10:02:35;;;;;;;7.63;4.38;;;20.40;97.10;;;;;;5029000;28;20132;-58
2023/07/16 10:05:15;;;;;;;8.18;4.18;;;20.40;96.90;;;;;;5030528;28;20084;-57
2023/07/16 10:07:42;;;;;;;7.05;4.15;;;20.50;97.20;;;;;;5028433;28;20570;-56
2023/07/16 10:10:09;;;;;;;8.32;4.40;;;20.60;96.70;;;;;;5029436;28;20067;-53
2023/07/16 10:12:37;;;;;;;8.13;4.15;;;20.60;97.00;;;;;;5029124;28;20139;-57
2023/07/16 10:15:04;;;;;;;11.80;4.63;;;20.60;96.90;;;;;;5030760;28;20082;-55
2023/07/16 10:17:31;;;;;;;9.57;4.40;;;20.60;97.10;;;;;;5028981;28;20116;-55
2023/07/16 10:19:59;;;;;;;9.93;4.25;;;20.60;96.90;;;;;;5030361;28;20048;-59
2023/07/16 10:22:51;;;;;;;8.63;3.83;;;20.50;96.90;;;;;;5029528;28;20120;-56
2023/07/16 10:25:17;;;;;;;7.70;4.63;;;20.40;97.10;;;;;;5034034;28;20578;-57
2023/07/16 10:27:44;;;;;;;9.15;4.68;;;20.40;97.70;;;;;;5030686;28;20124;-54
2023/07/16 10:30:10;;;;;;;6.38;4.10;;;20.60;97.70;;;;;;5030516;28;20122;-55
2023/07/16 10:32:36;;;;;;;10.82;4.40;;;20.70;97.00;;;;;;5029779;28;20040;-58
2023/07/16 10:35:03;;;;;;;9.02;4.15;;;20.80;97.30;;;;;;5030077;28;20209;-56
2023/07/16 10:37:29;;;;;;;8.38;3.67;;;20.90;97.20;;;;;;5027947;28;20128;-57
2023/07/16 10:39:57;;;;;;;8.57;3.70;;;21.00;96.40;;;;;;5029649;28;20128;-57
2023/07/16 10:42:24;;;;;;;7.32;3.63;;;21.00;95.10;;;;;;5028782;28;20044;-56
2023/07/16 10:44:57;;;;;;;5.90;3.88;;;21.00;95.30;;;;;;5028671;28;20055;-56
2023/07/16 10:47:30;;;;;;;8.57;4.03;;;20.90;95.40;;;;;;5030078;28;20605;-55
2023/07/16 10:49:55;;;;;;;7.88;3.92;;;20.90;95.50;;;;;;5030158;28;20040;-55
2023/07/16 10:52:22;;;;;;;7.47;3.95;;;20.80;96.20;;;;;;5029148;28;20048;-57
2023/07/16 10:54:55;;;;;;;8.82;4.10;;;21.00;95.90;;;;;;5029659;28;20111;-56
2023/07/16 10:57:24;;;;;;;8.48;4.55;;;21.00;95.90;;;;;;5028892;28;20137;-57
2023/07/16 10:59:58;;;;;;;10.02;3.95;;;21.10;96.00;;;;;;5027894;28;20443;-57
2023/07/16 11:02:25;;;;;;;7.70;4.23;;;21.10;95.70;;;;;;5027529;28;20088;-55
2023/07/16 11:04:53;;;;;;;8.52;4.18;;;21.00;95.70;;;;;;5029225;28;20533;-51
2023/07/16 11:07:19;;;;;;;8.65;4.10;;;20.90;96.30;;;;;;5027487;28;20068;-55
2023/07/16 11:09:50;;;;;;;7.35;4.45;;;20.80;96.10;;;;;;5028933;28;20037;-58
2023/07/16 11:12:18;;;;;;;8.98;4.13;;;20.90;95.80;;;;;;5029306;28;20147;-57
2023/07/16 11:14:54;;;;;;;8.30;4.47;;;20.90;96.60;;;;;;5029088;28;20045;-57
2023/07/16 11:17:24;;;;;;;6.97;3.88;;;20.90;96.40;;;;;;5026538;28;20110;-58
2023/07/16 11:19:51;;;;;;;5.43;3.80;;;21.00;96.10;;;;;;5032391;28;20049;-57
2023/07/16 11:22:18;;;;;;;7.82;4.22;;;21.00;96.70;;;;;;5031823;28;20045;-57
2023/07/16 11:24:49;;;;;;;7.80;4.20;;;21.00;96.60;;;;;;5032876;28;20045;-59
2023/07/16 11:27:22;;;;;;;9.77;4.70;;;21.20;96.60;;;;;;5032785;28;20036;-57
2023/07/16 11:29:47;;;;;;;7.60;4.68;;;21.20;96.00;;;;;;5033752;28;20132;-56
2023/07/16 11:32:14;;;;;;;8.63;4.70;;;21.00;95.90;;;;;;5033501;28;20132;-58
2023/07/16 11:34:52;;;;;;;6.20;3.95;;;20.90;96.30;;;;;;5032403;28;20029;-56
2023/07/16 11:37:18;;;;;;;9.77;5.13;;;21.10;96.20;;;;;;5040553;28;20044;-55
2023/07/16 11:39:44;;;;;;;10.13;4.43;;;21.20;96.30;;;;;;5033406;28;20040;-58
2023/07/16 11:42:09;;;;;;;9.60;4.72;;;21.30;96.00;;;;;;5032165;28;20396;-56
2023/07/16 11:44:36;;;;;;;8.38;5.03;;;21.10;96.10;;;;;;5033274;28;20041;-55
2023/07/16 11:47:05;;;;;;;8.93;4.22;;;21.00;96.50;;;;;;5030869;28;20049;-57
2023/07/16 11:49:30;;;;;;;7.70;4.35;;;21.00;96.50;;;;;;5029590;28;20048;-58
2023/07/16 11:51:58;;;;;;;10.38;4.40;;;21.00;96.30;;;;;;5026104;28;20046;-57
2023/07/16 11:54:23;;;;;;;7.70;4.10;;;21.00;96.30;;;;;;5032129;28;20477;-56
2023/07/16 11:56:49;;;;;;;8.30;3.50;;;21.00;96.50;;;;;;5032253;28;20037;-56
2023/07/16 11:59:20;;;;;;;7.30;3.60;;;21.00;96.20;;;;;;5033214;28;20041;-58
2023/07/16 12:01:47;;;;;;;9.38;3.75;;;21.00;95.70;;;;;;5030755;28;20219;-56
2023/07/16 12:04:13;;;;;;;8.00;4.15;;;21.00;95.40;;;;;;5032519;28;20049;-57
2023/07/16 12:06:38;;;;;;;7.15;3.83;;;20.80;96.00;;;;;;5031110;28;20087;-57
2023/07/16 12:09:04;;;;;;;7.82;4.35;;;20.90;96.00;;;;;;5030852;28;20041;-56
2023/07/16 12:11:30;;;;;;;7.95;3.90;;;20.80;95.80;;;;;;5031669;28;20136;-57
2023/07/16 12:13:55;;;;;;;9.20;4.40;;;20.80;96.60;;;;;;5031313;28;20044;-56
2023/07/16 12:16:21;;;;;;;6.82;3.78;;;20.80;96.50;;;;;;5032590;28;20037;-57
2023/07/16 12:18:47;;;;;;;6.53;4.00;;;20.80;97.20;;;;;;5032727;28;20424;-57
2023/07/16 12:21:12;;;;;;;8.18;4.38;;;20.80;96.80;;;;;;5030888;28;20411;-56
2023/07/16 12:23:38;;;;;;;8.77;4.57;;;20.90;96.70;;;;;;5032375;28;20417;-57
2023/07/16 12:26:03;;;;;;;8.25;4.82;;;20.70;96.90;;;;;;5032410;28;20727;-57
2023/07/16 12:28:29;;;;;;;7.93;4.60;;;20.80;97.00;;;;;;5031374;28;20035;-56
2023/07/16 12:30:54;;;;;;;10.38;4.15;;;20.80;97.10;;;;;;5031515;28;20372;-56
2023/07/16 12:33:20;;;;;;;7.18;4.32;;;20.80;97.50;;;;;;5031202;28;20152;-53
2023/07/16 12:35:47;;;;;;;9.48;3.92;;;20.80;97.10;;;;;;5031850;28;20045;-56
2023/07/16 12:38:12;;;;;;;6.32;4.07;;;20.90;96.30;;;;;;5031743;28;20496;-55
2023/07/16 12:40:40;;;;;;;8.40;4.03;;;20.90;96.80;;;;;;5028194;28;20138;-57